Time;durP1;ratioP1;P1;durP2;ratioP2;P2;SDS_P1;SDS_P2;PMS_P1;PMS_P2;Temp;Humidity;BMP_temperature;BMP_pressure;BME280_temperature;BME280_humidity;BME280_pressure;Samples;Min_cycle;Max_cycle;Signal;HPM_P1;HPM_P2
2022/06/14 03:47:17;;;;;;;;;;;;;;;21.32;41.44;97194.22;4235884;27;10284;-65
2022/06/14 03:49:25;;;;;;;;;;;;;;;21.57;41.17;97190.19;4229177;28;5675;-66
2022/06/14 03:51:39;;;;;;;;;;;;;;;21.76;40.86;97194.97;4229577;28;5675;-66
2022/06/14 03:53:58;;;;;;;;;;;;;;;21.86;40.81;97194.25;4229140;28;5718;-66
2022/06/14 03:56:19;;;;;;;;;;;;;;;21.98;40.53;97191.41;4224527;28;5671;-65
2022/06/14 03:58:38;;;;;;;;;;;;;;;22.05;40.57;97194.66;4222012;28;6154;-65
2022/06/14 04:00:49;;;;;;;;;;;;;;;22.11;40.55;97190.19;4229306;28;5930;-65
2022/06/14 04:03:13;;;;;;;;;;;;;;;22.17;40.52;97189.94;4230705;28;5693;-66
2022/06/14 04:05:27;;;;;;;;;;;;;;;22.21;40.31;97188.38;4217872;28;5778;-65
2022/06/14 04:07:41;;;;;;;;;;;;;;;22.25;40.32;97194.06;4214667;28;5692;-66
2022/06/14 04:09:56;;;;;;;;;;;;;;;22.33;40.56;97196.28;4215848;28;5911;-66
2022/06/14 04:12:07;;;;;;;;;;;;;;;22.38;40.03;97201.69;4223851;27;5645;-66
2022/06/14 04:14:28;;;;;;;;;;;;;;;22.39;40.31;97195.22;4234030;27;5840;-66
2022/06/14 04:16:41;;;;;;;;;;;;;;;22.44;40.43;97189.91;4231890;28;5682;-66
2022/06/14 04:18:51;;;;;;;;;;;;;;;22.44;40.44;97184.50;4231090;28;5765;-66
2022/06/14 04:21:00;;;;;;;;;;;;;;;22.45;40.28;97190.72;4229888;27;5082;-66
2022/06/14 04:23:11;;;;;;;;;;;;;;;22.43;40.12;97184.78;4228886;27;5686;-67
2022/06/14 04:25:20;;;;;;;;;;;;;;;22.44;39.95;97187.19;4231746;28;5753;-66
2022/06/14 04:27:33;;;;;;;;;;;;;;;22.43;40.41;97187.47;4221311;28;5675;-66
2022/06/14 04:29:39;;;;;;;;;;;;;;;22.43;40.00;97180.19;4230357;28;5686;-66
2022/06/14 04:31:48;;;;;;;;;;;;;;;22.44;39.99;97186.41;4229515;28;5097;-67
2022/06/14 04:33:59;;;;;;;;;;;;;;;22.44;40.16;97189.91;4231735;28;5686;-67
2022/06/14 04:36:09;;;;;;;;;;;;;;;22.45;39.95;97199.59;4220011;28;5807;-67
2022/06/14 04:38:15;;;;;;;;;;;;;;;22.49;40.06;97195.31;4229247;28;5726;-67
2022/06/14 04:40:25;;;;;;;;;;;;;;;22.52;40.37;97200.16;4231308;28;5690;-66
2022/06/14 04:42:34;;;;;;;;;;;;;;;22.51;40.13;97203.13;4230801;28;6371;-67
2022/06/14 04:44:47;;;;;;;;;;;;;;;22.51;40.16;97197.75;4221511;27;5728;-66
2022/06/14 04:46:57;;;;;;;;;;;;;;;22.51;40.17;97189.66;4259432;27;5616;-67
2022/06/14 04:49:12;;;;;;;;;;;;;;;22.53;40.03;97191.00;4240946;27;5698;-67
2022/06/14 04:51:22;;;;;;;;;;;;;;;22.50;39.94;97188.84;4248480;27;5818;-67
2022/06/14 04:53:31;;;;;;;;;;;;;;;22.48;40.06;97191.00;4239913;27;5789;-67
2022/06/14 04:55:40;;;;;;;;;;;;;;;22.52;39.99;97196.66;4224564;28;5715;-67
2022/06/14 04:57:48;;;;;;;;;;;;;;;22.53;40.05;97193.69;4234334;28;5857;-67
2022/06/14 04:59:53;;;;;;;;;;;;;;;22.52;39.98;97191.28;4220063;28;5150;-67
2022/06/14 05:02:01;;;;;;;;;;;;;;;22.55;40.20;97191.59;4230492;28;5677;-66
2022/06/14 05:04:13;;;;;;;;;;;;;;;22.61;40.25;97190.53;4235722;28;5735;-66
2022/06/14 05:06:25;;;;;;;;;;;;;;;22.64;40.14;97181.91;4234456;27;5641;-66
2022/06/14 05:08:34;;;;;;;;;;;;;;;22.64;40.19;97181.91;4219818;28;5678;-67
2022/06/14 05:10:43;;;;;;;;;;;;;;;22.67;40.18;97184.13;4222835;28;5076;-66
2022/06/14 05:12:52;;;;;;;;;;;;;;;22.63;39.97;97188.38;4233983;28;5761;-66
2022/06/14 05:14:59;;;;;;;;;;;;;;;22.61;40.04;97187.84;4227301;27;5760;-66
2022/06/14 05:17:08;;;;;;;;;;;;;;;22.65;40.13;97178.19;4232393;28;5671;-66
2022/06/14 05:19:18;;;;;;;;;;;;;;;22.74;40.27;97188.44;4231887;28;5682;-66
2022/06/14 05:21:26;;;;;;;;;;;;;;;22.79;40.28;97186.59;4235237;28;5732;-66
2022/06/14 05:23:34;;;;;;;;;;;;;;;22.90;40.05;97182.09;4232520;28;5641;-67
2022/06/14 05:25:47;;;;;;;;;;;;;;;22.97;39.63;97190.75;4236224;28;7690;-66
2022/06/14 05:27:59;;;;;;;;;;;;;;;23.04;40.07;97187.84;4234627;28;7674;-66
2022/06/14 05:30:08;;;;;;;;;;;;;;;23.19;39.60;97190.56;4234084;27;5648;-77
2022/06/14 05:32:22;;;;;;;;;;;;;;;23.37;39.25;97183.91;4232385;28;7656;-68
2022/06/14 05:34:39;;;;;;;;;;;;;;;23.54;39.54;97184.47;4232386;28;5656;-73
2022/06/14 05:36:46;;;;;;;;;;;;;;;23.71;38.94;97185.09;4234347;28;6358;-71
2022/06/14 05:38:55;;;;;;;;;;;;;;;23.88;39.03;97186.72;4235009;28;5715;-69
2022/06/14 05:41:02;;;;;;;;;;;;;;;24.07;39.04;97179.72;4234482;28;5750;-69
2022/06/14 05:43:11;;;;;;;;;;;;;;;24.21;38.58;97188.09;4231412;28;5649;-69
2022/06/14 05:45:18;;;;;;;;;;;;;;;24.35;38.39;97181.94;4228091;28;5905;-70
2022/06/14 05:47:37;;;;;;;;;;;;;;;24.46;38.81;97168.38;4232966;28;5731;-68
2022/06/14 05:49:46;;;;;;;;;;;;;;;24.60;38.21;97182.97;4233149;27;5641;-66
2022/06/14 05:51:56;;;;;;;;;;;;;;;24.78;38.22;97185.06;4233794;28;5662;-67
2022/06/14 05:54:04;;;;;;;;;;;;;;;24.91;38.23;97176.38;4236107;28;5652;-67
2022/06/14 05:56:18;;;;;;;;;;;;;;;25.01;38.21;97178.25;4228588;28;5870;-67
2022/06/14 05:58:27;;;;;;;;;;;;;;;25.07;38.45;97176.38;4234112;28;5735;-67
2022/06/14 06:00:36;;;;;;;;;;;;;;;25.15;38.00;97186.63;4235366;28;5661;-68
2022/06/14 06:02:46;;;;;;;;;;;;;;;25.17;38.07;97181.75;4229918;28;5728;-67
2022/06/14 06:04:55;;;;;;;;;;;;;;;25.22;38.29;97179.00;4218976;28;5670;-66
2022/06/14 06:07:06;;;;;;;;;;;;;;;25.24;38.34;97183.03;4218524;28;5717;-66
2022/06/14 06:09:15;;;;;;;;;;;;;;;25.30;37.99;97177.63;4218714;28;5694;-66
2022/06/14 06:11:21;;;;;;;;;;;;;;;25.28;37.89;97180.59;4218555;28;6359;-66
2022/06/14 06:13:29;;;;;;;;;;;;;;;25.32;37.92;97178.94;4225377;28;5660;-65
2022/06/14 06:15:39;;;;;;;;;;;;;;;25.35;38.00;97178.38;4234407;27;5637;-66
2022/06/14 06:17:47;;;;;;;;;;;;;;;25.37;38.25;97176.22;4235536;28;5829;-72
2022/06/14 06:20:02;;;;;;;;;;;;;;;25.40;38.23;97185.69;4233041;28;5661;-72
2022/06/14 06:22:13;;;;;;;;;;;;;;;25.43;38.26;97180.50;4233366;28;5653;-72
2022/06/14 06:24:21;;;;;;;;;;;;;;;25.43;38.02;97177.00;4235358;28;5648;-73
2022/06/14 06:26:31;;;;;;;;;;;;;;;25.43;38.45;97177.81;4241503;27;5699;-73
2022/06/14 06:28:39;;;;;;;;;;;;;;;25.45;38.20;97178.34;4260702;27;5669;-72
2022/06/14 06:30:50;;;;;;;;;;;;;;;25.43;38.08;97183.22;4233857;28;5623;-73
2022/06/14 06:32:56;;;;;;;;;;;;;;;25.41;38.05;97177.28;4229780;28;5670;-72
2022/06/14 06:35:02;;;;;;;;;;;;;;;25.45;38.24;97181.03;4225042;28;5818;-73
2022/06/14 06:37:10;;;;;;;;;;;;;;;25.50;38.08;97181.03;4226489;28;5641;-72
2022/06/14 06:39:37;;;;;;;;;;;;;;;25.46;38.23;97174.53;4235056;28;5422;-73
2022/06/14 06:41:51;;;;;;;;;;;;;;;25.48;38.16;97179.66;4235228;28;5779;-72
2022/06/14 06:43:55;;;;;;;;;;;;;;;25.53;37.91;97176.94;4234732;28;6587;-73
2022/06/14 06:46:00;;;;;;;;;;;;;;;25.55;38.03;97180.19;4228869;27;6317;-72
2022/06/14 06:48:09;;;;;;;;;;;;;;;25.58;38.21;97182.31;4239060;27;5732;-73
2022/06/14 06:50:25;;;;;;;;;;;;;;;25.59;38.37;97183.94;4235050;28;5641;-73
2022/06/14 06:52:40;;;;;;;;;;;;;;;25.67;38.05;97187.97;4228514;28;5720;-73
2022/06/14 06:54:49;;;;;;;;;;;;;;;25.70;37.97;97173.88;4234691;27;5704;-73
2022/06/14 06:56:59;;;;;;;;;;;;;;;25.75;38.04;97179.28;4234310;28;7741;-73
2022/06/14 06:59:08;;;;;;;;;;;;;;;25.76;37.78;97178.19;4234939;28;5088;-73
2022/06/14 07:01:16;;;;;;;;;;;;;;;25.76;37.56;97178.19;4234687;27;5720;-73
2022/06/14 07:03:26;;;;;;;;;;;;;;;25.72;37.75;97177.94;4235214;28;5648;-73
2022/06/14 07:05:31;;;;;;;;;;;;;;;25.68;37.81;97178.75;4234162;28;5822;-73
2022/06/14 07:07:41;;;;;;;;;;;;;;;25.62;37.75;97182.59;4228843;28;5816;-73
2022/06/14 07:09:49;;;;;;;;;;;;;;;25.56;38.15;97179.09;4226868;27;5660;-73
2022/06/14 07:11:59;;;;;;;;;;;;;;;25.46;37.87;97177.25;4230524;28;5795;-74
2022/06/14 07:14:08;;;;;;;;;;;;;;;25.38;38.34;97183.25;4218051;28;5670;-73
2022/06/14 07:16:19;;;;;;;;;;;;;;;25.30;38.28;97169.50;4228300;28;5813;-73
2022/06/14 07:18:25;;;;;;;;;;;;;;;25.18;38.24;97169.81;4232734;28;5649;-73
2022/06/14 07:20:39;;;;;;;;;;;;;;;25.12;38.23;97160.91;4234338;28;5674;-73
2022/06/14 07:22:47;;;;;;;;;;;;;;;25.09;38.49;97166.06;4233135;28;5665;-73
2022/06/14 07:24:57;;;;;;;;;;;;;;;25.07;38.14;97171.75;4216227;28;5627;-73
2022/06/14 07:27:25;;;;;;;;;;;;;;;25.02;38.64;97163.66;4217385;28;5682;-73
2022/06/14 07:29:35;;;;;;;;;;;;;;;24.94;38.58;97173.13;4225517;28;5679;-73
2022/06/14 07:31:45;;;;;;;;;;;;;;;24.92;38.19;97160.97;4223809;27;5665;-73
2022/06/14 07:33:49;;;;;;;;;;;;;;;24.87;38.24;97167.19;4222510;28;5704;-73
2022/06/14 07:38:26;;;;;;;;;;;;;;;24.81;38.42;97165.63;4217972;28;5705;-73
2022/06/14 07:40:34;;;;;;;;;;;;;;;24.77;38.71;97161.00;4233992;27;5743;-73
2022/06/14 07:42:47;;;;;;;;;;;;;;;24.69;38.77;97159.69;4234597;27;5747;-73
2022/06/14 07:44:57;;;;;;;;;;;;;;;24.65;38.81;97164.00;4232527;28;5735;-73
2022/06/14 07:47:06;;;;;;;;;;;;;;;24.63;38.65;97160.78;4228884;27;5665;-72
2022/06/14 07:49:21;;;;;;;;;;;;;;;24.59;38.55;97162.44;4232030;28;5652;-73
2022/06/14 07:51:31;;;;;;;;;;;;;;;24.56;38.70;97166.47;4233662;28;6410;-72
2022/06/14 07:53:39;;;;;;;;;;;;;;;24.51;38.75;97166.50;4231393;28;5757;-73
2022/06/14 07:55:46;;;;;;;;;;;;;;;24.49;38.58;97155.16;4234574;28;5657;-73
2022/06/14 07:57:56;;;;;;;;;;;;;;;24.48;38.60;97158.94;4222781;27;5764;-73
2022/06/14 08:02:28;;;;;;;;;;;;;;;24.48;38.83;97147.31;4232695;28;5660;-73
2022/06/14 08:04:35;;;;;;;;;;;;;;;24.47;39.00;97148.41;4233175;28;5657;-73
2022/06/14 08:06:43;;;;;;;;;;;;;;;24.42;39.09;97153.78;4232699;28;5662;-73
2022/06/14 08:08:52;;;;;;;;;;;;;;;24.36;39.24;97147.59;4232824;28;5617;-73
2022/06/14 08:11:01;;;;;;;;;;;;;;;24.30;39.38;97149.50;4221880;28;5662;-73
2022/06/14 08:13:08;;;;;;;;;;;;;;;24.31;39.10;97156.50;4230164;28;5736;-73
2022/06/14 08:15:16;;;;;;;;;;;;;;;24.32;39.50;97152.72;4217323;28;5682;-73
2022/06/14 08:17:26;;;;;;;;;;;;;;;24.33;39.07;97161.63;4215900;28;5841;-73
2022/06/14 08:19:34;;;;;;;;;;;;;;;24.32;39.27;97154.63;4217801;28;5768;-73
2022/06/14 08:21:43;;;;;;;;;;;;;;;24.32;39.56;97152.72;4231905;28;5653;-72
2022/06/14 08:23:51;;;;;;;;;;;;;;;24.32;39.34;97155.44;4236708;28;5672;-74
2022/06/14 08:26:01;;;;;;;;;;;;;;;24.26;39.18;97145.69;4233020;28;5649;-73
2022/06/14 08:28:11;;;;;;;;;;;;;;;24.21;39.20;97148.38;4221453;28;5662;-73
2022/06/14 08:30:20;;;;;;;;;;;;;;;24.17;39.64;97147.31;4254422;27;5735;-73
2022/06/14 08:32:33;;;;;;;;;;;;;;;24.13;39.59;97146.25;4248551;27;5724;-73
2022/06/14 08:34:47;;;;;;;;;;;;;;;24.17;39.49;97146.50;4235472;28;5698;-72
2022/06/14 08:36:57;;;;;;;;;;;;;;;24.22;39.83;97141.91;4235951;28;5637;-72
2022/06/14 08:39:07;;;;;;;;;;;;;;;24.27;39.71;97141.09;4222629;28;8413;-72
2022/06/14 08:41:28;;;;;;;;;;;;;;;24.30;39.45;97135.13;4219677;28;6155;-73
2022/06/14 08:43:36;;;;;;;;;;;;;;;24.27;39.76;97141.91;4221290;28;5670;-72
2022/06/14 08:45:46;;;;;;;;;;;;;;;24.30;39.59;97141.38;4242017;27;5752;-72
2022/06/14 08:48:06;;;;;;;;;;;;;;;24.27;39.56;97139.22;4253955;27;5606;-73
2022/06/14 08:50:17;;;;;;;;;;;;;;;24.30;39.58;97140.53;4235681;27;5705;-73
2022/06/14 08:52:50;;;;;;;;;;;;;;;24.31;39.68;97137.59;4233559;28;5620;-72
2022/06/14 08:55:09;;;;;;;;;;;;;;;24.36;39.92;97134.09;4218864;28;5674;-72
2022/06/14 08:57:29;;;;;;;;;;;;;;;24.31;40.00;97137.59;4221353;28;5797;-72
2022/06/14 08:59:56;;;;;;;;;;;;;;;24.32;40.06;97141.91;4241616;27;5107;-73
2022/06/14 09:02:45;;;;;;;;;;;;;;;24.30;39.94;97130.56;4251547;27;5631;-73
2022/06/14 09:05:36;;;;;;;;;;;;;;;24.29;40.16;97125.41;4235621;28;5723;-73
2022/06/14 09:07:56;;;;;;;;;;;;;;;24.26;40.16;97124.09;4188887;28;5654;-72
2022/06/14 09:10:26;;;;;;;;;;;;;;;24.26;39.88;97115.97;4232057;28;5637;-72
2022/06/14 09:12:58;;;;;;;;;;;;;;;24.31;39.81;97115.97;4235537;28;5809;-72
2022/06/14 09:15:44;;;;;;;;;;;;;;;24.37;40.25;97111.41;4236723;28;5716;-72
2022/06/14 09:18:12;;;;;;;;;;;;;;;24.34;40.08;97111.91;4213909;28;5753;-72
2022/06/14 09:20:29;;;;;;;;;;;;;;;24.33;39.82;97115.72;4215924;28;5865;-72
2022/06/14 09:22:39;;;;;;;;;;;;;;;24.36;40.18;97121.41;4217817;28;5730;-72
2022/06/14 09:25:15;;;;;;;;;;;;;;;24.39;40.22;97118.13;4232403;28;5660;-72
2022/06/14 09:27:34;;;;;;;;;;;;;;;24.39;40.37;97117.31;4234954;28;5739;-72
2022/06/14 09:30:06;;;;;;;;;;;;;;;24.42;40.40;97115.97;4236329;27;5739;-72
2022/06/14 09:35:27;;;;;;;;;;;;;;;24.52;40.48;97115.94;4234901;28;5653;-72
2022/06/14 09:38:00;;;;;;;;;;;;;;;24.45;40.45;97108.13;4233948;28;5653;-71
2022/06/14 09:40:37;;;;;;;;;;;;;;;24.49;40.20;97108.41;4236181;28;5660;-71
2022/06/14 09:43:15;;;;;;;;;;;;;;;24.47;40.50;97110.56;4228655;28;6559;-71
2022/06/14 09:45:55;;;;;;;;;;;;;;;24.50;40.33;97107.31;4235912;28;5637;-71
2022/06/14 09:48:25;;;;;;;;;;;;;;;24.52;40.60;97110.53;4236000;27;5764;-73
2022/06/14 09:50:50;;;;;;;;;;;;;;;24.54;40.29;97103.78;4236005;28;5761;-71
2022/06/14 09:53:26;;;;;;;;;;;;;;;24.54;40.15;97098.38;4235674;28;6779;-71
2022/06/14 09:55:43;;;;;;;;;;;;;;;24.57;40.51;97097.81;4218841;28;7339;-72
2022/06/14 09:58:03;;;;;;;;;;;;;;;24.58;40.50;97098.66;4217750;28;6709;-72
2022/06/14 10:00:38;;;;;;;;;;;;;;;24.55;40.20;97083.75;4218964;28;5690;-72
2022/06/14 10:03:06;;;;;;;;;;;;;;;24.60;40.48;97091.06;4217559;28;5607;-72
2022/06/14 10:05:37;;;;;;;;;;;;;;;24.65;40.18;97099.16;4218998;28;5658;-72
2022/06/14 10:07:55;;;;;;;;;;;;;;;24.64;40.65;97092.13;4215184;28;5682;-72
2022/06/14 10:10:21;;;;;;;;;;;;;;;24.63;40.39;97094.00;4218985;28;5665;-72
2022/06/14 10:12:48;;;;;;;;;;;;;;;24.66;40.67;97092.66;4209862;28;5699;-72
2022/06/14 10:15:02;;;;;;;;;;;;;;;24.68;40.52;97093.97;4218948;28;5669;-73
2022/06/14 10:17:36;;;;;;;;;;;;;;;24.74;40.14;97093.97;4218978;28;5843;-72
2022/06/14 10:20:05;;;;;;;;;;;;;;;24.77;40.07;97093.41;4218903;28;5663;-72
2022/06/14 10:22:27;;;;;;;;;;;;;;;24.77;40.47;97086.13;4218099;28;5902;-72
2022/06/14 10:24:35;;;;;;;;;;;;;;;24.73;40.66;97095.06;4218883;28;6451;-73
2022/06/14 10:29:27;;;;;;;;;;;;;;;24.77;40.25;97091.53;4218414;28;5677;-73
2022/06/14 10:31:44;;;;;;;;;;;;;;;24.78;40.37;97087.72;4218865;28;5767;-72
2022/06/14 10:33:54;;;;;;;;;;;;;;;24.80;40.52;97084.75;4218401;28;5729;-71
2022/06/14 10:36:26;;;;;;;;;;;;;;;24.82;40.59;97083.41;4218499;28;5769;-71
2022/06/14 10:38:40;;;;;;;;;;;;;;;24.88;40.61;97087.69;4216751;27;5636;-71
2022/06/14 10:40:56;;;;;;;;;;;;;;;24.91;40.49;97084.41;4252470;27;5635;-72
2022/06/14 10:43:05;;;;;;;;;;;;;;;24.92;40.19;97082.56;4252220;27;5071;-72
2022/06/14 10:45:15;;;;;;;;;;;;;;;24.96;40.58;97079.00;4250013;27;5649;-71
2022/06/14 10:47:30;;;;;;;;;;;;;;;24.96;40.66;97079.00;4252128;27;5750;-71
2022/06/14 10:50:17;;;;;;;;;;;;;;;24.96;40.56;97084.41;4252265;27;5647;-72
2022/06/14 10:52:40;;;;;;;;;;;;;;;24.96;40.67;97081.72;4199332;28;6427;-72
2022/06/14 10:54:51;;;;;;;;;;;;;;;24.98;40.51;97082.25;4189611;28;5812;-71
2022/06/14 10:57:07;;;;;;;;;;;;;;;24.98;40.77;97081.44;4183086;28;5753;-72
2022/06/14 10:59:43;;;;;;;;;;;;;;;25.00;40.84;97087.38;4183050;28;5744;-71
2022/06/14 11:01:57;;;;;;;;;;;;;;;25.04;40.78;97084.97;4182733;28;5781;-71
2022/06/14 11:04:09;;;;;;;;;;;;;;;25.06;40.90;97080.06;4182601;28;6427;-72
2022/06/14 11:06:48;;;;;;;;;;;;;;;25.06;40.67;97080.06;4182668;28;5816;-72
2022/06/14 11:09:03;;;;;;;;;;;;;;;25.04;40.64;97071.44;4180824;28;5737;-71
2022/06/14 11:11:26;;;;;;;;;;;;;;;25.06;40.97;97080.06;4182449;28;5741;-72
2022/06/14 11:13:41;;;;;;;;;;;;;;;25.06;40.90;97075.47;4182615;28;5745;-71
2022/06/14 11:15:49;;;;;;;;;;;;;;;25.12;40.80;97070.84;4182632;28;5083;-71
2022/06/14 11:18:13;;;;;;;;;;;;;;;25.16;40.86;97072.72;4166022;28;5970;-71
2022/06/14 11:20:32;;;;;;;;;;;;;;;25.19;40.62;97060.53;4182653;28;5745;-71
2022/06/14 11:22:41;;;;;;;;;;;;;;;25.22;40.67;97062.66;4186211;28;5741;-72
2022/06/14 11:24:53;;;;;;;;;;;;;;;25.26;40.36;97055.63;4217899;28;5801;-72
2022/06/14 11:27:07;;;;;;;;;;;;;;;25.29;40.46;97041.53;4216883;28;5717;-71
2022/06/14 11:29:20;;;;;;;;;;;;;;;25.34;40.66;97048.78;4232523;28;6825;-71
2022/06/14 11:31:32;;;;;;;;;;;;;;;25.35;40.06;97047.69;4224096;28;5663;-71
2022/06/14 11:33:55;;;;;;;;;;;;;;;25.37;40.59;97045.50;4233811;28;5826;-71
2022/06/14 11:36:20;;;;;;;;;;;;;;;25.37;40.01;97042.78;4223873;28;5838;-71
2022/06/14 11:38:42;;;;;;;;;;;;;;;25.41;40.16;97049.28;4232735;28;6428;-72
2022/06/14 11:40:49;;;;;;;;;;;;;;;25.44;40.26;97049.50;4230582;28;5873;-71
2022/06/14 11:43:11;;;;;;;;;;;;;;;25.48;39.98;97041.63;4220194;28;7659;-71
2022/06/14 11:45:27;;;;;;;;;;;;;;;25.50;39.91;97044.88;4244044;27;8391;-71
2022/06/14 11:47:38;;;;;;;;;;;;;;;25.50;40.14;97043.00;4234052;28;5879;-71
2022/06/14 11:49:51;;;;;;;;;;;;;;;25.55;39.90;97044.84;4249021;27;5639;-71
2022/06/14 11:52:08;;;;;;;;;;;;;;;25.58;39.90;97046.16;4250924;27;5640;-72
2022/06/14 11:54:20;;;;;;;;;;;;;;;25.62;39.92;97039.91;4250717;27;6301;-71
2022/06/14 11:56:32;;;;;;;;;;;;;;;25.65;39.57;97035.81;4243577;27;5649;-72
2022/06/14 11:58:55;;;;;;;;;;;;;;;25.67;39.99;97039.84;4236027;28;5733;-71
2022/06/14 12:01:21;;;;;;;;;;;;;;;25.68;39.91;97035.25;4236946;27;5732;-71
2022/06/14 12:03:44;;;;;;;;;;;;;;;25.68;39.56;97035.25;4237410;28;5673;-72
2022/06/14 12:05:56;;;;;;;;;;;;;;;25.71;39.52;97037.41;4236229;28;5744;-71
2022/06/14 12:08:06;;;;;;;;;;;;;;;25.73;39.79;97032.53;4235989;28;5188;-71
2022/06/14 12:10:47;;;;;;;;;;;;;;;25.75;39.98;97019.53;4232098;28;6356;-71
2022/06/14 12:13:11;;;;;;;;;;;;;;;25.78;39.46;97014.34;4231486;28;6368;-72
2022/06/14 12:15:21;;;;;;;;;;;;;;;25.85;39.76;97021.34;4228733;28;5653;-71
2022/06/14 12:17:30;;;;;;;;;;;;;;;25.87;39.81;97006.41;4236609;28;5653;-71
2022/06/14 12:19:36;;;;;;;;;;;;;;;25.89;39.55;97008.81;4236606;28;5747;-71
2022/06/14 12:21:49;;;;;;;;;;;;;;;25.92;40.07;97002.84;4225494;28;5530;-72
2022/06/14 12:23:57;;;;;;;;;;;;;;;25.94;39.75;97001.47;4229006;28;5652;-71
2022/06/14 12:28:38;;;;;;;;;;;;;;;25.96;39.59;96996.56;4237160;28;6278;-72
2022/06/14 12:30:45;;;;;;;;;;;;;;;26.00;39.75;96994.91;4236130;28;5826;-72
2022/06/14 12:32:58;;;;;;;;;;;;;;;26.01;39.86;96996.50;4236729;28;5644;-71
2022/06/14 12:35:07;;;;;;;;;;;;;;;26.04;39.71;96993.22;4234556;28;5588;-71
2022/06/14 12:37:27;;;;;;;;;;;;;;;26.06;39.62;96982.94;4227799;27;5627;-72
2022/06/14 12:39:37;;;;;;;;;;;;;;;26.09;39.90;96997.78;4252971;27;5679;-72
2022/06/14 12:41:47;;;;;;;;;;;;;;;26.12;40.00;96991.78;4253868;27;5735;-71
2022/06/14 12:44:13;;;;;;;;;;;;;;;26.15;40.05;96979.56;4241032;27;5739;-72
2022/06/14 12:46:28;;;;;;;;;;;;;;;26.20;40.03;96984.94;4234285;28;5669;-71
2022/06/14 12:48:46;;;;;;;;;;;;;;;26.22;39.84;96980.03;4227192;28;5830;-72
2022/06/14 12:50:55;;;;;;;;;;;;;;;26.24;40.06;96973.22;4219798;28;5733;-72
2022/06/14 12:53:09;;;;;;;;;;;;;;;26.24;39.94;96972.41;4235196;28;5765;-72
2022/06/14 12:55:21;;;;;;;;;;;;;;;26.28;40.11;96973.47;4249329;27;6442;-71
2022/06/14 12:57:34;;;;;;;;;;;;;;;26.29;39.73;96975.09;4253865;27;5620;-71
2022/06/14 12:59:46;;;;;;;;;;;;;;;26.31;39.88;96970.19;4227890;28;5673;-71
2022/06/14 13:01:59;;;;;;;;;;;;;;;26.30;39.96;96971.28;4218269;28;5778;-71
2022/06/14 13:04:09;;;;;;;;;;;;;;;26.32;39.74;96966.38;4223951;28;5653;-71
2022/06/14 13:06:53;;;;;;;;;;;;;;;26.28;39.93;96959.91;4232555;28;5761;-70
2022/06/14 13:09:03;;;;;;;;;;;;;;;26.35;39.79;96980.13;4210667;28;5786;-72
2022/06/14 13:11:14;;;;;;;;;;;;;;;26.35;40.08;96972.00;4235299;28;5641;-72
2022/06/14 13:13:40;;;;;;;;;;;;;;;26.34;40.08;96967.69;4235730;28;5645;-72
2022/06/14 13:15:54;;;;;;;;;;;;;;;26.33;39.97;96960.66;4219610;28;5073;-71
2022/06/14 13:18:10;;;;;;;;;;;;;;;26.33;39.96;96957.13;4230818;28;5092;-71
2022/06/14 13:20:27;;;;;;;;;;;;;;;26.33;40.02;96952.53;4220315;28;5721;-71
2022/06/14 13:22:54;;;;;;;;;;;;;;;26.33;39.91;96954.44;4234512;27;5676;-71
2022/06/14 13:25:26;;;;;;;;;;;;;;;26.32;39.89;96945.50;4235248;28;5640;-71
2022/06/14 13:27:44;;;;;;;;;;;;;;;26.36;40.02;96948.41;4233318;28;5667;-72
2022/06/14 13:29:59;;;;;;;;;;;;;;;26.39;39.63;96934.34;4219169;28;5658;-72
2022/06/14 13:32:26;;;;;;;;;;;;;;;26.42;39.90;96936.47;4230174;28;5715;-72
2022/06/14 13:34:45;;;;;;;;;;;;;;;26.47;39.61;96930.16;4234190;28;5657;-73
2022/06/14 13:37:11;;;;;;;;;;;;;;;26.51;39.52;96923.88;4233276;27;5792;-70
2022/06/14 13:39:31;;;;;;;;;;;;;;;26.51;39.71;96923.06;4243744;27;5627;-71
2022/06/14 13:41:40;;;;;;;;;;;;;;;26.51;39.49;96923.88;4234738;28;5653;-72
2022/06/14 13:43:50;;;;;;;;;;;;;;;26.52;39.78;96919.25;4235656;28;5761;-71
2022/06/14 13:46:00;;;;;;;;;;;;;;;26.52;39.44;96913.84;4235331;28;5644;-72
2022/06/14 13:48:15;;;;;;;;;;;;;;;26.51;39.57;96912.22;4229985;28;5675;-71
2022/06/14 13:50:23;;;;;;;;;;;;;;;26.52;39.32;96911.94;4218921;28;5685;-71
2022/06/14 13:52:33;;;;;;;;;;;;;;;26.54;39.39;96911.63;4233711;28;5878;-71
2022/06/14 13:54:40;;;;;;;;;;;;;;;26.53;39.62;96908.13;4240951;27;5581;-71
2022/06/14 13:56:51;;;;;;;;;;;;;;;26.52;39.50;96906.50;4237419;27;5648;-71
2022/06/14 13:59:05;;;;;;;;;;;;;;;26.53;39.81;96907.31;4235857;28;5821;-71
2022/06/14 14:01:17;;;;;;;;;;;;;;;26.55;39.66;96919.47;4235049;28;6326;-71
2022/06/14 14:03:31;;;;;;;;;;;;;;;26.56;39.59;96910.22;4221639;28;5960;-71
2022/06/14 14:05:40;;;;;;;;;;;;;;;26.55;39.45;96908.63;4218501;28;5666;-71
2022/06/14 14:07:52;;;;;;;;;;;;;;;26.55;39.77;96908.63;4232184;28;6347;-71
2022/06/14 14:10:29;;;;;;;;;;;;;;;26.56;39.68;96902.09;4234675;28;5640;-71
2022/06/14 14:12:41;;;;;;;;;;;;;;;26.62;39.43;96895.53;4234363;27;5771;-71
2022/06/14 14:15:13;;;;;;;;;;;;;;;26.67;39.59;96900.03;4220245;28;5654;-72
2022/06/14 14:17:26;;;;;;;;;;;;;;;26.70;39.56;96894.84;4226814;27;5661;-71
2022/06/14 14:19:44;;;;;;;;;;;;;;;26.72;39.22;96901.88;4226880;28;5649;-72
2022/06/14 14:21:56;;;;;;;;;;;;;;;26.69;39.27;96901.34;4227977;28;5661;-72
2022/06/14 14:24:19;;;;;;;;;;;;;;;26.66;39.15;96896.53;4231582;28;5644;-72
2022/06/14 14:26:29;;;;;;;;;;;;;;;26.66;39.18;96898.44;4228824;28;5840;-72
2022/06/14 14:28:44;;;;;;;;;;;;;;;26.67;39.50;96894.63;4229357;28;5848;-72
2022/06/14 14:30:55;;;;;;;;;;;;;;;26.70;39.12;96894.03;4234536;27;5750;-73
2022/06/14 14:33:05;;;;;;;;;;;;;;;26.66;39.48;96891.09;4228185;28;6429;-71
2022/06/14 14:35:19;;;;;;;;;;;;;;;26.73;39.06;96892.63;4218065;28;5784;-71
2022/06/14 14:37:31;;;;;;;;;;;;;;;26.75;39.04;96895.88;4224246;27;5627;-72
2022/06/14 14:39:40;;;;;;;;;;;;;;;26.73;39.23;96885.31;4234639;27;5815;-72
2022/06/14 14:41:49;;;;;;;;;;;;;;;26.79;39.18;96891.47;4232895;27;6599;-71
2022/06/14 14:43:57;;;;;;;;;;;;;;;26.76;39.04;96886.63;4229354;27;5698;-71
2022/06/14 14:46:06;;;;;;;;;;;;;;;26.73;39.28;96884.50;4240711;27;5674;-72
2022/06/14 14:48:18;;;;;;;;;;;;;;;26.73;39.13;96882.63;4231792;27;5615;-72
2022/06/14 14:50:35;;;;;;;;;;;;;;;26.69;39.32;96876.94;4228154;27;5665;-72
2022/06/14 14:52:47;;;;;;;;;;;;;;;26.75;39.37;96880.41;4230428;27;5657;-72
2022/06/14 14:55:02;;;;;;;;;;;;;;;26.73;39.24;96869.06;4232789;28;5656;-67
2022/06/14 14:57:13;;;;;;;;;;;;;;;26.76;39.27;96873.09;4231219;27;6481;-71
2022/06/14 14:59:26;;;;;;;;;;;;;;;26.80;39.34;96876.81;4233571;27;5800;-71
2022/06/14 15:06:38;;;;;;;;;;;;;;;26.80;39.08;96860.53;4225532;27;5850;-71
2022/06/14 15:08:52;;;;;;;;;;;;;;;26.78;39.31;96862.75;4229431;27;5679;-71
2022/06/14 15:11:00;;;;;;;;;;;;;;;26.75;39.18;96853.28;4222659;27;5769;-71
2022/06/14 15:13:03;;;;;;;;;;;;;;;26.74;39.10;96861.72;4229781;28;5862;-73
2022/06/14 15:15:16;;;;;;;;;;;;;;;26.79;39.08;96854.31;4234025;27;5766;-70
2022/06/14 15:19:57;;;;;;;;;;;;;;;26.76;39.32;96838.63;4235711;27;5712;-72
2022/06/14 15:22:08;;;;;;;;;;;;;;;26.81;39.35;96845.88;4224470;27;5723;-72
2022/06/14 15:24:17;;;;;;;;;;;;;;;26.82;39.36;96855.59;4232826;27;5639;-71
2022/06/14 15:26:23;;;;;;;;;;;;;;;26.82;39.30;96848.28;4231437;27;5153;-71
2022/06/14 15:28:42;;;;;;;;;;;;;;;26.83;39.40;96849.09;4227429;27;5743;-71
2022/06/14 15:30:50;;;;;;;;;;;;;;;26.88;39.18;96854.44;4248033;27;5815;-71
2022/06/14 15:32:54;;;;;;;;;;;;;;;26.91;39.11;96851.13;4246966;27;7006;-72
2022/06/14 15:35:00;;;;;;;;;;;;;;;26.97;39.07;96847.25;4234477;27;5779;-71
2022/06/14 15:37:24;;;;;;;;;;;;;;;26.97;38.93;96849.94;4232104;27;5644;-71
2022/06/14 15:39:31;;;;;;;;;;;;;;;26.94;39.39;96836.97;4229370;27;5685;-71
2022/06/14 15:41:35;;;;;;;;;;;;;;;26.97;39.12;96839.09;4226711;27;5741;-72
2022/06/14 15:43:40;;;;;;;;;;;;;;;26.98;38.91;96836.09;4236145;27;5688;-71
2022/06/14 15:45:47;;;;;;;;;;;;;;;26.96;39.33;96827.44;4223394;28;5652;-71
2022/06/14 15:48:01;;;;;;;;;;;;;;;26.95;39.40;96831.22;4229064;28;5744;-71
2022/06/14 15:50:24;;;;;;;;;;;;;;;26.94;39.41;96829.63;4227954;28;5770;-72
2022/06/14 15:52:32;;;;;;;;;;;;;;;26.93;39.51;96838.88;4226770;28;5744;-72
2022/06/14 15:54:39;;;;;;;;;;;;;;;26.94;39.31;96836.97;4225149;28;5776;-72
2022/06/14 15:56:55;;;;;;;;;;;;;;;26.90;39.29;96828.63;4226647;28;5764;-71